createdAt,value
2018-12-15T00:02:11.025Z,39.03
2018-12-15T00:04:39.497Z,38.07
2018-12-15T00:07:08.103Z,38.10
2018-12-15T00:09:36.438Z,35.37
2018-12-15T00:12:04.873Z,35.93
2018-12-15T00:14:33.257Z,35.50
2018-12-15T00:17:05.688Z,36.17
2018-12-15T00:19:31.912Z,41.27
2018-12-15T00:22:00.274Z,38.07
2018-12-15T00:24:28.792Z,39.87
2018-12-15T00:26:57.105Z,39.07
2018-12-15T00:29:25.378Z,41.27
2018-12-15T00:31:53.697Z,37.90
2018-12-15T00:34:22.065Z,36.17
2018-12-15T00:36:50.433Z,40.67
2018-12-15T00:39:18.735Z,40.07
2018-12-15T00:41:47.094Z,44.80
2018-12-15T00:44:15.589Z,42.17
2018-12-15T00:46:43.936Z,40.90
2018-12-15T00:49:12.241Z,39.40
2018-12-15T00:51:40.541Z,40.70
2018-12-15T00:54:08.935Z,38.23
2018-12-15T00:56:37.349Z,43.43
2018-12-15T00:59:05.759Z,43.43
2018-12-15T01:01:34.365Z,44.37
2018-12-15T01:04:02.696Z,39.20
2018-12-15T01:06:31.057Z,44.43
2018-12-15T01:08:59.373Z,39.17
2018-12-15T01:11:27.713Z,40.70
2018-12-15T01:13:56.082Z,45.20
2018-12-15T01:16:24.428Z,39.27
2018-12-15T01:18:52.716Z,41.20
2018-12-15T01:21:21.136Z,38.60
2018-12-15T01:23:49.476Z,39.17
2018-12-15T01:26:17.878Z,38.60
2018-12-15T01:28:46.177Z,41.90
2018-12-15T01:31:14.545Z,39.90
2018-12-15T01:33:42.871Z,38.50
2018-12-15T01:36:11.221Z,36.93
2018-12-15T01:38:39.641Z,41.83
2018-12-15T01:41:08.064Z,38.67
2018-12-15T01:43:36.422Z,38.50
2018-12-15T01:46:04.890Z,37.77
2018-12-15T01:48:33.261Z,34.20
2018-12-15T01:51:01.694Z,36.10
2018-12-15T01:53:29.980Z,33.63
2018-12-15T01:55:58.262Z,31.03
2018-12-15T01:58:26.605Z,38.10
2018-12-15T02:00:54.921Z,33.40
2018-12-15T02:03:23.276Z,35.73
2018-12-15T02:05:51.611Z,32.03
2018-12-15T02:08:26.671Z,31.13
2018-12-15T02:10:54.945Z,33.27
2018-12-15T02:13:23.257Z,36.10
2018-12-15T02:15:51.594Z,32.03
2018-12-15T02:18:19.917Z,36.07
2018-12-15T02:20:48.436Z,35.30
2018-12-15T02:23:16.830Z,35.00
2018-12-15T02:25:45.228Z,34.47
2018-12-15T02:28:13.505Z,31.37
2018-12-15T02:30:41.840Z,31.13
2018-12-15T02:33:10.174Z,33.70
2018-12-15T02:35:38.485Z,33.27
2018-12-15T02:38:06.925Z,35.43
2018-12-15T02:40:35.291Z,35.63
2018-12-15T02:43:03.652Z,31.70
2018-12-15T02:45:31.979Z,36.87
2018-12-15T02:48:00.382Z,34.93
2018-12-15T02:50:28.795Z,38.97
2018-12-15T02:52:57.113Z,37.23
2018-12-15T02:55:25.624Z,38.97
2018-12-15T02:57:54.015Z,36.23
2018-12-15T03:00:22.373Z,37.00
2018-12-15T03:02:50.675Z,38.50
2018-12-15T03:05:19.005Z,35.40
2018-12-15T03:07:47.285Z,32.63
2018-12-15T03:10:15.680Z,39.80
2018-12-15T03:12:43.980Z,37.50
2018-12-15T03:15:12.337Z,37.77
2018-12-15T03:17:40.735Z,40.93
2018-12-15T03:20:09.079Z,41.00
2018-12-15T03:22:37.379Z,37.00
2018-12-15T03:25:06.373Z,37.70
2018-12-15T03:27:34.639Z,38.87
2018-12-15T03:30:02.999Z,39.60
2018-12-15T03:32:31.478Z,37.63
2018-12-15T03:34:59.931Z,38.20
2018-12-15T03:37:28.233Z,37.60
2018-12-15T03:39:56.602Z,36.23
2018-12-15T03:42:24.885Z,31.50
2018-12-15T03:44:53.282Z,34.30
2018-12-15T03:47:21.578Z,36.63
2018-12-15T03:49:49.893Z,36.50
2018-12-15T03:52:18.232Z,33.03
2018-12-15T03:54:46.568Z,35.97
2018-12-15T03:57:14.954Z,31.83
2018-12-15T03:59:43.334Z,38.30
2018-12-15T04:02:11.950Z,35.10
2018-12-15T04:04:40.379Z,34.27
2018-12-15T04:07:08.687Z,35.80
2018-12-15T04:09:37.045Z,36.60
2018-12-15T04:12:05.321Z,34.00
2018-12-15T04:14:33.709Z,39.93
2018-12-15T04:17:01.995Z,34.70
2018-12-15T04:19:30.316Z,37.50
2018-12-15T04:22:10.014Z,36.57
2018-12-15T04:24:38.361Z,36.17
2018-12-15T04:27:06.774Z,32.17
2018-12-15T04:29:35.121Z,37.33
2018-12-15T04:32:03.606Z,31.07
2018-12-15T04:34:31.879Z,30.33
2018-12-15T04:37:00.388Z,30.63
2018-12-15T04:39:28.717Z,29.63
2018-12-15T04:41:57.012Z,28.53
2018-12-15T04:44:25.290Z,29.67
2018-12-15T04:46:53.909Z,28.60
2018-12-15T04:49:23.145Z,32.87
2018-12-15T04:51:51.535Z,27.63
2018-12-15T04:54:19.807Z,30.37
2018-12-15T04:56:48.096Z,30.10
2018-12-15T04:59:16.383Z,30.13
2018-12-15T05:01:44.682Z,30.30
2018-12-15T05:04:12.964Z,34.33
2018-12-15T05:06:41.376Z,34.90
2018-12-15T05:09:09.647Z,33.70
2018-12-15T05:11:37.955Z,33.10
2018-12-15T05:14:06.254Z,35.30
2018-12-15T05:16:34.565Z,35.33
2018-12-15T05:19:02.857Z,37.73
2018-12-15T05:21:31.167Z,36.60
2018-12-15T05:23:59.454Z,38.00
2018-12-15T05:26:27.805Z,34.87
2018-12-15T05:28:56.146Z,30.23
2018-12-15T05:31:24.500Z,32.17
2018-12-15T05:33:52.816Z,31.40
2018-12-15T05:36:21.123Z,29.70
2018-12-15T05:38:49.421Z,29.27
2018-12-15T05:41:17.705Z,29.87
2018-12-15T05:43:46.021Z,27.90
2018-12-15T05:46:14.479Z,30.17
2018-12-15T05:48:42.830Z,27.40
2018-12-15T05:51:11.153Z,29.93
2018-12-15T05:53:39.580Z,28.40
2018-12-15T05:56:07.934Z,25.97
2018-12-15T05:58:36.433Z,30.27
2018-12-15T06:01:04.710Z,35.17
2018-12-15T06:03:33.013Z,31.10
2018-12-15T06:06:01.293Z,34.63
2018-12-15T06:08:29.625Z,37.13
2018-12-15T06:10:57.910Z,44.13
2018-12-15T06:13:26.216Z,42.80
2018-12-15T06:15:54.496Z,43.50
2018-12-15T06:18:22.812Z,45.00
2018-12-15T06:20:51.166Z,41.13
2018-12-15T06:23:19.477Z,48.40
2018-12-15T06:25:54.229Z,43.87
2018-12-15T06:28:22.521Z,55.90
2018-12-15T06:30:50.825Z,55.83
2018-12-15T06:33:19.110Z,47.77
2018-12-15T06:35:47.396Z,55.57
2018-12-15T06:38:15.693Z,45.27
2018-12-15T06:40:44.045Z,50.33
2018-12-15T06:43:12.412Z,63.83
2018-12-15T06:45:40.687Z,56.80
2018-12-15T06:48:09.076Z,51.07
2018-12-15T06:50:37.409Z,50.10
2018-12-15T06:53:05.714Z,52.90
2018-12-15T06:55:35.037Z,50.20
2018-12-15T06:58:03.402Z,49.27
2018-12-15T07:00:31.685Z,48.53
2018-12-15T07:02:59.978Z,51.57
2018-12-15T07:05:28.293Z,51.00
2018-12-15T07:07:56.801Z,50.03
2018-12-15T07:10:25.087Z,49.67
2018-12-15T07:12:53.437Z,53.83
2018-12-15T07:15:21.816Z,52.63
2018-12-15T07:17:50.119Z,50.27
2018-12-15T07:20:18.394Z,55.57
2018-12-15T07:22:46.713Z,58.77
2018-12-15T07:25:14.989Z,54.43
2018-12-15T07:27:43.280Z,54.83
2018-12-15T07:30:11.655Z,50.60
2018-12-15T07:32:39.970Z,53.67
2018-12-15T07:35:08.467Z,51.60
2018-12-15T07:37:36.778Z,51.73
2018-12-15T07:40:05.907Z,50.13
2018-12-15T07:42:34.258Z,57.17
2018-12-15T07:45:02.670Z,54.93
2018-12-15T07:47:31.087Z,58.60
2018-12-15T07:49:59.476Z,51.33
2018-12-15T07:52:27.788Z,54.03
2018-12-15T07:54:56.157Z,55.80
2018-12-15T07:57:25.850Z,49.27
2018-12-15T07:59:55.050Z,51.93
2018-12-15T08:02:23.332Z,49.30
2018-12-15T08:04:51.670Z,48.50
2018-12-15T08:07:20.268Z,48.50
2018-12-15T08:09:50.373Z,51.40
2018-12-15T08:12:24.201Z,49.00
2018-12-15T08:14:52.805Z,48.50
2018-12-15T08:17:21.357Z,49.93
2018-12-15T08:19:50.113Z,46.17
2018-12-15T08:22:18.387Z,47.20
2018-12-15T08:24:46.837Z,48.20
2018-12-15T08:27:15.332Z,46.67
2018-12-15T08:29:43.657Z,42.70
2018-12-15T08:32:11.960Z,46.77
2018-12-15T08:34:40.408Z,44.17
2018-12-15T08:37:08.785Z,42.13
2018-12-15T08:39:37.097Z,41.57
2018-12-15T08:42:05.409Z,42.37
2018-12-15T08:44:33.714Z,43.13
2018-12-15T08:47:02.104Z,45.40
2018-12-15T08:49:30.409Z,38.30
2018-12-15T08:51:58.766Z,44.80
2018-12-15T08:54:27.294Z,45.07
2018-12-15T08:56:55.832Z,53.63
2018-12-15T08:59:24.922Z,56.13
2018-12-15T09:01:53.489Z,44.53
2018-12-15T09:04:22.152Z,48.37
2018-12-15T09:06:50.699Z,57.00
2018-12-15T09:09:19.084Z,68.83
2018-12-15T09:11:47.357Z,59.40
2018-12-15T09:14:15.985Z,49.03
2018-12-15T09:16:44.282Z,42.00
2018-12-15T09:19:12.602Z,41.60
2018-12-15T09:21:41.004Z,42.10
2018-12-15T09:24:09.341Z,41.60
2018-12-15T09:26:37.773Z,47.40
2018-12-15T09:29:06.080Z,44.30
2018-12-15T09:31:34.370Z,37.73
2018-12-15T09:34:02.880Z,39.13
2018-12-15T09:36:31.284Z,41.30
2018-12-15T09:38:59.806Z,37.60
2018-12-15T09:41:28.242Z,37.50
2018-12-15T09:43:56.795Z,42.57
2018-12-15T09:46:25.326Z,40.50
2018-12-15T09:48:53.825Z,37.00
2018-12-15T09:51:22.161Z,38.87
2018-12-15T09:53:50.632Z,39.63
2018-12-15T09:56:19.181Z,38.73
2018-12-15T09:58:48.729Z,40.47
2018-12-15T10:01:18.777Z,42.53
2018-12-15T10:03:47.426Z,45.23
2018-12-15T10:06:15.741Z,40.73
2018-12-15T10:08:44.060Z,43.07
2018-12-15T10:11:12.388Z,37.93
2018-12-15T10:13:40.792Z,41.07
2018-12-15T10:16:09.593Z,39.20
2018-12-15T10:18:38.064Z,42.53
2018-12-15T10:21:06.404Z,41.87
2018-12-15T10:23:34.916Z,54.23
2018-12-15T10:26:03.300Z,47.43
2018-12-15T10:28:31.642Z,45.73
2018-12-15T10:31:05.304Z,81.40
2018-12-15T10:33:33.654Z,49.00
2018-12-15T10:36:01.931Z,45.53
2018-12-15T10:38:30.294Z,47.47
2018-12-15T10:40:58.650Z,35.47
2018-12-15T10:43:26.977Z,38.60
2018-12-15T10:45:55.419Z,36.57
2018-12-15T10:48:23.746Z,35.67
2018-12-15T10:50:52.018Z,39.33
2018-12-15T10:53:20.328Z,35.40
2018-12-15T10:55:48.625Z,35.53
2018-12-15T10:58:16.992Z,35.73
2018-12-15T11:00:50.745Z,35.20
2018-12-15T11:03:19.047Z,33.90
2018-12-15T11:05:47.595Z,36.10
2018-12-15T11:08:15.887Z,35.67
2018-12-15T11:10:44.313Z,37.50
2018-12-15T11:13:12.669Z,36.37
2018-12-15T11:15:41.098Z,35.33
2018-12-15T11:18:09.438Z,36.63
2018-12-15T11:20:37.756Z,32.93
2018-12-15T11:23:06.078Z,36.03
2018-12-15T11:25:34.396Z,35.33
2018-12-15T11:28:02.728Z,34.30
2018-12-15T11:30:31.041Z,36.63
2018-12-15T11:32:59.378Z,33.13
2018-12-15T11:35:27.799Z,33.07
2018-12-15T11:37:56.090Z,35.10
2018-12-15T11:40:24.622Z,35.23
2018-12-15T11:42:52.892Z,33.93
2018-12-15T11:45:21.310Z,31.67
2018-12-15T11:47:49.641Z,31.90
2018-12-15T11:50:17.968Z,29.60
2018-12-15T11:52:46.288Z,31.40
2018-12-15T11:55:14.839Z,28.90
2018-12-15T11:57:43.185Z,30.87
2018-12-15T12:00:12.254Z,28.47
2018-12-15T12:02:40.949Z,31.77
2018-12-15T12:05:09.562Z,31.93
2018-12-15T12:07:37.872Z,38.33
2018-12-15T12:10:07.005Z,32.27
2018-12-15T12:12:35.402Z,34.23
2018-12-15T12:15:06.523Z,31.90
2018-12-15T12:17:34.894Z,29.03
2018-12-15T12:20:04.350Z,33.43
2018-12-15T12:22:32.686Z,28.47
2018-12-15T12:25:01.235Z,26.20
2018-12-15T12:27:29.605Z,30.13
2018-12-15T12:29:58.062Z,27.57
2018-12-15T12:32:26.375Z,25.07
2018-12-15T12:34:54.723Z,22.83
2018-12-15T12:37:23.032Z,25.67
2018-12-15T12:39:51.402Z,23.90
2018-12-15T12:42:19.708Z,24.83
2018-12-15T12:44:48.213Z,23.20
2018-12-15T12:47:16.545Z,25.40
2018-12-15T12:49:44.996Z,27.90
2018-12-15T12:52:13.296Z,24.63
2018-12-15T12:54:41.627Z,20.27
2018-12-15T12:57:09.932Z,33.20
2018-12-15T12:59:38.270Z,23.83
2018-12-15T13:02:06.613Z,39.87
2018-12-15T13:04:35.041Z,22.60
2018-12-15T13:07:03.366Z,24.50
2018-12-15T13:09:31.721Z,22.50
2018-12-15T13:12:00.126Z,22.03
2018-12-15T13:14:28.505Z,22.83
2018-12-15T13:16:56.868Z,23.50
2018-12-15T13:19:25.295Z,24.40
2018-12-15T13:21:53.678Z,19.77
2018-12-15T13:24:22.074Z,20.53
2018-12-15T13:26:50.459Z,23.30
2018-12-15T13:29:18.897Z,21.80
2018-12-15T13:31:47.229Z,20.90
2018-12-15T13:34:15.784Z,22.63
2018-12-15T13:36:44.908Z,23.97
2018-12-15T13:39:13.331Z,24.60
2018-12-15T13:41:41.633Z,24.23
2018-12-15T13:44:09.937Z,27.63
2018-12-15T13:46:38.353Z,29.53
2018-12-15T13:49:06.704Z,27.47
2018-12-15T13:51:35.084Z,26.37
2018-12-15T13:54:03.530Z,27.70
2018-12-15T13:56:31.849Z,27.50
2018-12-15T13:59:00.312Z,28.23
2018-12-15T14:01:28.828Z,25.53
2018-12-15T14:03:57.151Z,30.10
2018-12-15T14:06:25.532Z,29.67
2018-12-15T14:08:53.912Z,29.37
2018-12-15T14:11:22.258Z,34.53
2018-12-15T14:13:50.577Z,35.30
2018-12-15T14:16:18.974Z,33.77
2018-12-15T14:18:47.260Z,31.33
2018-12-15T14:21:16.059Z,37.67
2018-12-15T14:23:44.398Z,35.13
2018-12-15T14:26:12.813Z,35.87
2018-12-15T14:28:41.141Z,36.53
2018-12-15T14:31:09.564Z,37.93
2018-12-15T14:33:37.981Z,32.00
2018-12-15T14:36:12.184Z,34.27
2018-12-15T14:38:43.642Z,34.40
2018-12-15T14:41:19.065Z,34.37
2018-12-15T14:43:50.329Z,31.23
2018-12-15T14:46:21.310Z,32.90
2018-12-15T14:48:51.876Z,28.50
2018-12-15T14:51:26.255Z,32.27
2018-12-15T14:53:58.769Z,28.83
2018-12-15T14:56:31.413Z,28.63
2018-12-15T14:59:03.014Z,27.00
2018-12-15T15:01:34.504Z,29.40
2018-12-15T15:04:05.201Z,28.93
2018-12-15T15:06:38.085Z,25.30
2018-12-15T15:09:09.939Z,24.37
2018-12-15T15:11:41.320Z,21.30
2018-12-15T15:14:14.164Z,22.63
2018-12-15T15:16:45.842Z,22.33
2018-12-15T15:19:17.227Z,21.83
2018-12-15T15:21:49.171Z,21.20
2018-12-15T15:24:21.353Z,21.87
2018-12-15T15:26:51.065Z,23.73
2018-12-15T15:29:21.891Z,22.20
2018-12-15T15:31:52.864Z,20.50
2018-12-15T15:34:24.411Z,22.50
2018-12-15T15:36:54.293Z,22.97
2018-12-15T15:39:25.636Z,22.30
2018-12-15T15:41:58.188Z,21.20
2018-12-15T15:44:29.326Z,20.73
2018-12-15T15:47:03.020Z,19.73
2018-12-15T15:52:12.784Z,21.10
2018-12-15T15:54:45.226Z,20.33
2018-12-15T15:57:18.230Z,18.67
2018-12-15T15:59:52.538Z,21.73
2018-12-15T16:02:22.889Z,20.40
2018-12-15T16:04:53.876Z,20.13
2018-12-15T16:07:27.611Z,19.27
2018-12-15T16:09:58.703Z,20.57
2018-12-15T16:12:30.165Z,18.70
2018-12-15T16:15:01.824Z,22.23
2018-12-15T16:17:51.016Z,21.03
2018-12-15T16:20:22.106Z,21.27
2018-12-15T16:22:53.266Z,21.87
2018-12-15T16:25:25.699Z,22.23
2018-12-15T16:27:59.332Z,23.63
2018-12-15T16:34:24.126Z,22.43
2018-12-15T16:36:58.892Z,21.17
2018-12-15T16:39:31.477Z,23.77
2018-12-15T16:42:04.514Z,23.80
2018-12-15T16:44:40.013Z,23.70
2018-12-15T16:47:12.371Z,23.97
2018-12-15T16:49:43.434Z,21.07
2018-12-15T16:52:18.235Z,24.60
2018-12-15T16:54:50.009Z,26.37
2018-12-15T16:57:21.547Z,23.07
2018-12-15T16:59:57.010Z,24.47
2018-12-15T17:02:32.939Z,24.27
2018-12-15T17:05:05.537Z,26.87
2018-12-15T17:07:37.355Z,25.07
2018-12-15T17:10:13.512Z,23.50
2018-12-15T17:12:45.528Z,26.33
2018-12-15T17:15:17.888Z,24.60
2018-12-15T17:17:50.477Z,23.43
2018-12-15T17:20:23.281Z,25.13
2018-12-15T17:22:53.867Z,26.70
2018-12-15T17:25:27.899Z,21.27
2018-12-15T17:27:59.422Z,22.23
2018-12-15T17:30:31.040Z,24.93
2018-12-15T17:33:03.405Z,21.33
2018-12-15T17:35:31.888Z,21.97
2018-12-15T17:38:00.301Z,24.37
2018-12-15T17:40:28.771Z,24.00
2018-12-15T17:42:57.168Z,23.07
2018-12-15T17:45:25.490Z,23.37
2018-12-15T17:47:54.003Z,21.17
2018-12-15T17:50:22.370Z,24.83
2018-12-15T17:52:52.217Z,25.77
2018-12-15T17:55:20.732Z,24.47
2018-12-15T17:57:49.257Z,20.57
2018-12-15T18:00:17.876Z,22.80
2018-12-15T18:02:46.336Z,25.17
2018-12-15T18:05:14.739Z,22.87
2018-12-15T18:07:44.099Z,20.67
2018-12-15T18:10:13.565Z,23.70
2018-12-15T18:12:42.552Z,23.63
2018-12-15T18:15:10.986Z,21.33
2018-12-15T18:17:39.269Z,24.73
2018-12-15T18:20:09.464Z,22.63
2018-12-15T18:22:37.773Z,21.97
2018-12-15T18:25:06.764Z,24.93
2018-12-15T18:27:35.063Z,20.67
2018-12-15T18:30:03.804Z,20.50
2018-12-15T18:32:32.112Z,22.67
2018-12-15T18:35:00.448Z,24.10
2018-12-15T18:37:28.753Z,23.27
2018-12-15T18:39:57.100Z,21.87
2018-12-15T18:42:25.414Z,23.00
2018-12-15T18:44:53.766Z,23.37
2018-12-15T18:47:22.059Z,20.33
2018-12-15T18:49:50.427Z,21.60
2018-12-15T18:52:18.910Z,24.80
2018-12-15T18:54:47.228Z,24.73
2018-12-15T18:57:15.651Z,20.47
2018-12-15T18:59:44.028Z,31.03
2018-12-15T19:02:12.501Z,23.47
2018-12-15T19:04:40.938Z,20.40
2018-12-15T19:07:09.452Z,22.13
2018-12-15T19:09:38.022Z,21.97
2018-12-15T19:12:06.556Z,20.87
2018-12-15T19:14:34.894Z,21.77
2018-12-15T19:17:03.228Z,21.63
2018-12-15T19:19:31.620Z,19.83
2018-12-15T19:21:59.933Z,18.07
2018-12-15T19:24:30.628Z,20.07
2018-12-15T19:26:58.950Z,18.73
2018-12-15T19:29:27.328Z,21.97
2018-12-15T19:31:55.681Z,20.17
2018-12-15T19:34:24.121Z,19.97
2018-12-15T19:36:52.572Z,19.70
2018-12-15T19:39:21.814Z,20.90
2018-12-15T19:41:50.144Z,22.90
2018-12-15T19:44:18.586Z,21.40
2018-12-15T19:46:46.914Z,20.17
2018-12-15T19:49:15.198Z,23.63
2018-12-15T19:51:43.617Z,19.20
2018-12-15T19:54:12.411Z,20.17
2018-12-15T19:56:41.024Z,20.97
2018-12-15T19:59:13.614Z,20.37
2018-12-15T20:01:43.129Z,19.03
2018-12-15T20:04:15.079Z,22.90
2018-12-15T20:06:44.025Z,21.57
2018-12-15T20:09:12.995Z,20.60
2018-12-15T20:11:41.848Z,22.47
2018-12-15T20:14:10.667Z,20.97
2018-12-15T20:16:39.465Z,22.27
2018-12-15T20:19:08.177Z,23.03
2018-12-15T20:21:37.261Z,19.90
2018-12-15T20:24:06.179Z,21.87
2018-12-15T20:26:36.168Z,21.67
2018-12-15T20:29:05.499Z,22.10
2018-12-15T20:31:35.456Z,22.10
2018-12-15T20:34:04.667Z,24.17
2018-12-15T20:36:33.063Z,20.60
2018-12-15T20:39:01.485Z,21.80
2018-12-15T20:41:31.891Z,20.80
2018-12-15T20:44:00.476Z,24.93
2018-12-15T20:46:28.821Z,21.93
2018-12-15T20:48:57.150Z,23.97
2018-12-15T20:51:25.547Z,23.50
2018-12-15T20:53:54.006Z,21.70
2018-12-15T20:56:22.520Z,24.10
2018-12-15T20:58:51.060Z,22.07
2018-12-15T21:01:19.410Z,23.53
2018-12-15T21:03:47.822Z,22.67
2018-12-15T21:06:16.169Z,22.53
2018-12-15T21:08:44.580Z,21.03
2018-12-15T21:11:13.054Z,23.10
2018-12-15T21:13:42.543Z,21.93
2018-12-15T21:16:11.006Z,23.60
2018-12-15T21:18:39.416Z,26.77
2018-12-15T21:21:07.724Z,25.87
2018-12-15T21:23:36.063Z,23.00
2018-12-15T21:26:04.606Z,25.37
2018-12-15T21:28:33.066Z,27.17
2018-12-15T21:31:01.461Z,28.30
2018-12-15T21:33:30.129Z,27.37
2018-12-15T21:35:58.565Z,26.67
2018-12-15T21:38:27.037Z,29.40
2018-12-15T21:40:55.385Z,29.50
2018-12-15T21:43:23.705Z,32.57
2018-12-15T21:45:52.124Z,28.30
2018-12-15T21:48:20.689Z,30.40
2018-12-15T21:50:49.030Z,30.23
2018-12-15T21:53:17.374Z,32.57
2018-12-15T21:55:45.699Z,32.07
2018-12-15T21:58:14.075Z,37.90
2018-12-15T22:00:42.591Z,37.60
2018-12-15T22:03:11.274Z,38.97
2018-12-15T22:05:39.641Z,34.73
2018-12-15T22:08:09.913Z,31.97
2018-12-15T22:10:38.520Z,33.47
2018-12-15T22:13:07.838Z,33.50
2018-12-15T22:15:36.609Z,30.50
2018-12-15T22:18:05.072Z,30.07
2018-12-15T22:20:33.778Z,29.97
2018-12-15T22:23:02.229Z,32.13
2018-12-15T22:25:30.691Z,29.97
2018-12-15T22:27:59.050Z,33.30
2018-12-15T22:30:27.355Z,32.30
2018-12-15T22:32:55.678Z,34.27
2018-12-15T22:35:24.049Z,32.90
2018-12-15T22:37:52.373Z,36.60
2018-12-15T22:40:20.853Z,33.27
2018-12-15T22:42:49.148Z,36.83
2018-12-15T22:45:17.622Z,35.47
2018-12-15T22:47:45.959Z,35.93
2018-12-15T22:50:14.297Z,36.77
2018-12-15T22:52:42.642Z,40.40
2018-12-15T22:55:11.114Z,34.33
2018-12-15T22:57:39.417Z,38.07
2018-12-15T23:00:10.437Z,40.40
2018-12-15T23:02:38.745Z,36.73
2018-12-15T23:05:10.813Z,39.47
2018-12-15T23:07:39.413Z,37.97
2018-12-15T23:10:08.571Z,35.17
2018-12-15T23:12:36.900Z,40.07
2018-12-15T23:15:11.420Z,35.43
2018-12-15T23:17:39.754Z,36.53
2018-12-15T23:20:08.721Z,36.53
2018-12-15T23:22:37.060Z,33.93
2018-12-15T23:25:05.685Z,37.47
2018-12-15T23:27:33.992Z,38.07
2018-12-15T23:30:02.549Z,36.57
2018-12-15T23:32:30.874Z,37.93
2018-12-15T23:34:59.403Z,34.77
2018-12-15T23:37:27.808Z,37.43
2018-12-15T23:39:56.224Z,38.03
2018-12-15T23:42:24.621Z,36.37
2018-12-15T23:44:52.948Z,37.60
2018-12-15T23:47:21.491Z,38.37
2018-12-15T23:49:49.869Z,38.00
2018-12-15T23:52:23.233Z,37.53
2018-12-15T23:54:48.574Z,39.07
2018-12-15T23:57:16.922Z,37.43
2018-12-15T23:59:45.322Z,35.17
